createdAt,value
2022-08-17T00:02:26.283Z,5.77
2022-08-17T00:04:55.430Z,5.40
2022-08-17T00:07:22.790Z,5.00
2022-08-17T00:09:49.771Z,5.30
2022-08-17T00:12:43.534Z,5.77
2022-08-17T00:15:05.548Z,6.30
2022-08-17T00:17:33.098Z,5.80
2022-08-17T00:20:00.703Z,5.77
2022-08-17T00:22:35.151Z,5.00
2022-08-17T00:25:07.980Z,5.80
2022-08-17T00:27:35.451Z,5.00
2022-08-17T00:30:02.415Z,5.80
2022-08-17T00:33:12.631Z,5.37
2022-08-17T00:35:18.425Z,5.40
2022-08-17T00:37:45.682Z,5.43
2022-08-17T00:40:15.108Z,5.20
2022-08-17T00:42:43.350Z,5.43
2022-08-17T00:45:12.243Z,5.43
2022-08-17T00:47:39.326Z,5.20
2022-08-17T00:50:09.579Z,5.00
2022-08-17T00:52:41.524Z,5.83
2022-08-17T00:55:09.409Z,5.20
2022-08-17T00:57:42.514Z,5.30
2022-08-17T01:00:12.395Z,5.70
2022-08-17T01:02:44.064Z,5.30
2022-08-17T01:05:18.641Z,5.90
2022-08-17T01:07:47.934Z,5.20
2022-08-17T01:10:57.254Z,4.57
2022-08-17T01:13:05.455Z,5.10
2022-08-17T01:15:37.477Z,5.43
2022-08-17T01:18:10.493Z,4.70
2022-08-17T01:20:48.432Z,5.20
2022-08-17T01:23:20.579Z,4.90
2022-08-17T01:25:55.067Z,5.60
2022-08-17T01:28:36.401Z,5.90
2022-08-17T01:31:10.150Z,5.33
2022-08-17T01:33:37.405Z,5.23
2022-08-17T01:36:07.204Z,5.40
2022-08-17T01:38:35.486Z,4.93
2022-08-17T01:41:07.885Z,5.87
2022-08-17T01:43:47.048Z,5.40
2022-08-17T01:46:24.410Z,5.13
2022-08-17T01:48:51.641Z,5.30
2022-08-17T01:51:19.991Z,5.20
2022-08-17T01:53:51.197Z,6.70
2022-08-17T01:56:21.390Z,5.30
2022-08-17T01:58:48.743Z,5.13
2022-08-17T02:01:18.791Z,4.93
2022-08-17T02:03:56.256Z,5.80
2022-08-17T02:06:45.191Z,6.50
2022-08-17T02:09:23.300Z,5.87
2022-08-17T02:11:52.889Z,6.30
2022-08-17T02:14:21.587Z,6.10
2022-08-17T02:16:48.480Z,5.87
2022-08-17T02:19:17.015Z,6.83
2022-08-17T02:21:47.455Z,5.93
2022-08-17T02:24:58.893Z,5.63
2022-08-17T02:27:08.758Z,5.80
2022-08-17T02:29:35.719Z,5.57
2022-08-17T02:32:02.827Z,5.60
2022-08-17T02:34:30.131Z,5.93
2022-08-17T02:36:57.062Z,5.40
2022-08-17T02:39:24.052Z,6.37
2022-08-17T02:41:59.858Z,7.00
2022-08-17T02:44:39.332Z,6.20
2022-08-17T02:47:09.194Z,6.20
2022-08-17T02:49:36.512Z,6.60
2022-08-17T02:52:06.674Z,5.33
2022-08-17T02:54:39.916Z,5.93
2022-08-17T02:57:08.019Z,5.50
2022-08-17T02:59:34.885Z,5.03
2022-08-17T03:02:04.216Z,5.57
2022-08-17T03:04:31.297Z,5.80
2022-08-17T03:07:02.624Z,6.03
2022-08-17T03:09:29.521Z,6.50
2022-08-17T03:12:08.481Z,5.90
2022-08-17T03:14:41.706Z,5.67
2022-08-17T03:17:15.877Z,5.20
2022-08-17T03:19:44.965Z,5.70
2022-08-17T03:22:36.426Z,5.63
2022-08-17T03:24:59.027Z,5.67
2022-08-17T03:27:26.337Z,5.53
2022-08-17T03:29:54.395Z,6.13
2022-08-17T03:32:21.628Z,5.13
2022-08-17T03:34:48.572Z,5.07
2022-08-17T03:37:15.711Z,5.67
2022-08-17T03:39:42.988Z,5.77
2022-08-17T03:42:31.986Z,5.13
2022-08-17T03:45:00.635Z,5.60
2022-08-17T03:47:46.542Z,6.43
2022-08-17T03:50:32.919Z,5.60
2022-08-17T03:53:18.900Z,6.20
2022-08-17T03:56:04.557Z,6.50
2022-08-17T03:58:31.541Z,6.53
2022-08-17T04:00:58.601Z,6.07
2022-08-17T04:03:25.604Z,6.00
2022-08-17T04:05:52.601Z,6.40
2022-08-17T04:08:19.504Z,6.13
2022-08-17T04:10:46.695Z,5.90
2022-08-17T04:13:14.215Z,6.20
2022-08-17T04:15:41.311Z,5.63
2022-08-17T04:18:11.023Z,5.83
2022-08-17T04:20:38.142Z,5.80
2022-08-17T04:23:07.110Z,6.77
2022-08-17T04:25:36.777Z,5.53
2022-08-17T04:28:05.373Z,5.67
2022-08-17T04:30:41.477Z,5.47
2022-08-17T04:33:12.859Z,5.60
2022-08-17T04:35:42.522Z,4.97
2022-08-17T04:38:13.100Z,5.10
2022-08-17T04:40:58.646Z,5.13
2022-08-17T04:43:27.170Z,5.30
2022-08-17T04:46:00.442Z,5.87
2022-08-17T04:48:49.273Z,5.20
2022-08-17T04:51:29.379Z,6.27
2022-08-17T04:54:00.448Z,5.47
2022-08-17T04:56:29.288Z,6.57
2022-08-17T04:58:59.170Z,6.10
2022-08-17T05:01:28.513Z,6.57
2022-08-17T05:03:59.214Z,5.57
2022-08-17T05:06:28.435Z,5.50
2022-08-17T05:08:56.290Z,5.20
2022-08-17T05:11:24.166Z,5.80
2022-08-17T05:13:51.260Z,5.20
2022-08-17T05:16:19.964Z,5.57
2022-08-17T05:18:47.603Z,5.30
2022-08-17T05:21:15.237Z,5.50
2022-08-17T05:23:43.572Z,5.47
2022-08-17T05:26:17.944Z,6.93
2022-08-17T05:28:55.090Z,6.73
2022-08-17T05:31:25.584Z,6.40
2022-08-17T05:33:53.349Z,5.67
2022-08-17T05:36:42.574Z,5.40
2022-08-17T05:39:07.231Z,5.27
2022-08-17T05:41:34.149Z,5.70
2022-08-17T05:44:01.032Z,5.47
2022-08-17T05:46:36.431Z,4.80
2022-08-17T05:49:07.929Z,4.80
2022-08-17T05:51:52.583Z,5.00
2022-08-17T05:54:39.576Z,5.43
2022-08-17T05:57:15.710Z,4.40
2022-08-17T06:00:07.284Z,4.00
2022-08-17T06:03:14.443Z,4.60
2022-08-17T06:05:51.541Z,5.13
2022-08-17T06:08:26.964Z,5.10
2022-08-17T06:11:20.563Z,4.70
2022-08-17T06:14:20.060Z,4.70
2022-08-17T06:16:53.515Z,4.50
2022-08-17T06:19:32.299Z,4.27
2022-08-17T06:22:00.754Z,5.20
2022-08-17T06:24:34.341Z,5.37
2022-08-17T06:27:12.910Z,4.60
2022-08-17T06:29:39.836Z,4.37
2022-08-17T06:32:10.212Z,4.77
2022-08-17T06:34:41.298Z,5.30
2022-08-17T06:37:22.968Z,3.70
2022-08-17T06:40:08.787Z,4.77
2022-08-17T06:43:05.475Z,4.50
2022-08-17T06:45:49.418Z,4.70
2022-08-17T06:48:24.901Z,4.40
2022-08-17T06:51:09.812Z,4.23
2022-08-17T06:53:55.681Z,4.70
2022-08-17T06:56:54.130Z,4.67
2022-08-17T06:59:55.924Z,4.53
2022-08-17T07:03:02.436Z,4.50
2022-08-17T07:05:43.876Z,4.80
2022-08-17T07:08:34.686Z,4.80
2022-08-17T07:11:29.805Z,5.00
2022-08-17T07:14:37.606Z,5.30
2022-08-17T07:17:14.516Z,4.57
2022-08-17T07:19:45.713Z,5.27
2022-08-17T07:22:18.740Z,5.00
2022-08-17T07:24:48.575Z,4.63
2022-08-17T07:27:32.138Z,4.90
2022-08-17T07:30:10.296Z,7.13
2022-08-17T07:33:01.145Z,5.70
2022-08-17T07:35:37.852Z,5.93
2022-08-17T07:38:28.469Z,5.43
2022-08-17T07:41:01.961Z,5.10
2022-08-17T07:43:34.843Z,5.33
2022-08-17T07:46:39.071Z,4.93
2022-08-17T07:49:14.558Z,5.30
2022-08-17T07:51:44.395Z,5.40
2022-08-17T07:54:23.133Z,4.90
2022-08-17T07:56:52.509Z,5.30
2022-08-17T07:59:33.802Z,4.73
2022-08-17T08:02:03.822Z,5.47
2022-08-17T08:07:31.947Z,5.17
2022-08-17T08:10:36.807Z,5.00
2022-08-17T08:13:22.412Z,4.73
2022-08-17T08:15:55.781Z,5.10
2022-08-17T08:18:53.866Z,4.67
2022-08-17T08:21:33.156Z,5.23
2022-08-17T08:24:33.067Z,5.90
2022-08-17T08:27:12.290Z,5.90
2022-08-17T08:30:11.932Z,5.80
2022-08-17T08:32:46.122Z,5.97
2022-08-17T08:35:39.045Z,5.03
2022-08-17T08:38:07.519Z,4.80
2022-08-17T08:40:56.025Z,4.37
2022-08-17T08:43:42.513Z,5.00
2022-08-17T08:46:35.411Z,4.93
2022-08-17T08:50:02.731Z,5.13
2022-08-17T08:52:42.491Z,4.60
2022-08-17T08:55:14.267Z,4.47
2022-08-17T08:57:48.783Z,4.60
2022-08-17T09:00:24.983Z,4.77
2022-08-17T09:03:12.732Z,5.00
2022-08-17T09:05:56.039Z,5.20
2022-08-17T09:08:28.910Z,4.80
2022-08-17T09:11:22.754Z,4.47
2022-08-17T09:14:22.089Z,4.30
2022-08-17T09:17:04.004Z,3.80
2022-08-17T09:19:49.244Z,3.60
2022-08-17T09:22:32.410Z,3.87
2022-08-17T09:25:07.220Z,4.83
2022-08-17T09:27:53.679Z,3.67
2022-08-17T09:30:21.407Z,4.20
2022-08-17T09:32:56.577Z,4.40
2022-08-17T09:35:36.520Z,3.77
2022-08-17T09:38:32.748Z,3.60
2022-08-17T09:41:16.001Z,4.40
2022-08-17T09:44:06.941Z,4.47
2022-08-17T09:46:41.208Z,3.33
2022-08-17T09:49:31.614Z,4.07
2022-08-17T09:52:06.311Z,3.53
2022-08-17T09:54:39.532Z,3.77
2022-08-17T09:57:31.396Z,3.87
2022-08-17T10:00:16.051Z,3.57
2022-08-17T10:03:09.576Z,3.40
2022-08-17T10:05:46.486Z,3.60
2022-08-17T10:08:24.338Z,3.63
2022-08-17T10:11:57.504Z,3.70
2022-08-17T10:14:37.252Z,3.60
2022-08-17T10:17:28.770Z,3.13
2022-08-17T10:20:27.202Z,3.37
2022-08-17T10:23:28.093Z,3.73
2022-08-17T10:26:13.186Z,3.17
2022-08-17T10:29:06.696Z,3.00
2022-08-17T10:32:04.112Z,3.23
2022-08-17T10:35:00.088Z,2.80
2022-08-17T10:37:51.522Z,3.30
2022-08-17T10:41:10.595Z,3.10
2022-08-17T10:44:36.582Z,3.47
2022-08-17T10:47:10.526Z,3.23
2022-08-17T10:49:44.334Z,2.93
2022-08-17T10:52:20.449Z,3.37
2022-08-17T10:55:06.060Z,2.90
2022-08-17T10:57:42.665Z,3.30
2022-08-17T11:00:35.939Z,3.50
2022-08-17T11:03:22.471Z,2.67
2022-08-17T11:06:14.150Z,3.33
2022-08-17T11:08:58.838Z,3.50
2022-08-17T11:11:43.424Z,3.00
2022-08-17T11:14:48.056Z,3.83
2022-08-17T11:18:01.624Z,2.97
2022-08-17T11:20:28.660Z,3.07
2022-08-17T11:23:32.851Z,3.00
2022-08-17T11:26:08.606Z,3.13
2022-08-17T11:28:48.859Z,2.63
2022-08-17T11:31:44.335Z,3.00
2022-08-17T11:34:18.889Z,3.00
2022-08-17T11:37:20.249Z,3.43
2022-08-17T11:40:18.258Z,3.20
2022-08-17T11:43:27.463Z,3.50
2022-08-17T11:46:12.243Z,3.40
2022-08-17T11:49:16.619Z,3.43
2022-08-17T11:52:01.669Z,3.00
2022-08-17T11:54:33.776Z,3.50
2022-08-17T11:57:26.323Z,3.20
2022-08-17T12:00:00.483Z,3.23
2022-08-17T12:02:38.824Z,2.97
2022-08-17T12:05:14.600Z,2.43
2022-08-17T12:07:52.145Z,2.90
2022-08-17T12:10:23.572Z,3.17
2022-08-17T12:12:52.888Z,3.20
2022-08-17T12:15:28.596Z,3.27
2022-08-17T12:17:57.800Z,3.10
2022-08-17T12:20:37.690Z,2.80
2022-08-17T12:23:07.370Z,2.87
2022-08-17T12:25:47.685Z,3.10
2022-08-17T12:28:29.870Z,3.07
2022-08-17T12:31:02.558Z,3.40
2022-08-17T12:33:29.831Z,3.43
2022-08-17T12:36:00.059Z,3.23
2022-08-17T12:38:33.274Z,3.43
2022-08-17T12:41:21.413Z,3.30
2022-08-17T12:44:06.521Z,2.97
2022-08-17T12:47:04.598Z,3.10
2022-08-17T12:49:37.907Z,3.07
2022-08-17T12:52:20.081Z,3.00
2022-08-17T12:54:55.894Z,3.40
2022-08-17T12:57:33.807Z,3.40
2022-08-17T13:00:08.782Z,3.00
2022-08-17T13:03:05.941Z,3.20
2022-08-17T13:05:41.524Z,3.20
2022-08-17T13:08:17.751Z,2.80
2022-08-17T13:10:56.528Z,3.47
2022-08-17T13:13:26.815Z,3.07
2022-08-17T13:16:00.834Z,2.50
2022-08-17T13:18:39.864Z,2.93
2022-08-17T13:21:19.360Z,2.93
2022-08-17T13:24:08.104Z,3.00
2022-08-17T13:26:40.279Z,3.00
2022-08-17T13:29:29.648Z,2.77
2022-08-17T13:32:33.369Z,3.40
2022-08-17T13:35:14.281Z,3.10
2022-08-17T13:38:01.506Z,2.47
2022-08-17T13:40:37.836Z,2.53
2022-08-17T13:43:05.575Z,2.83
2022-08-17T13:45:39.860Z,2.23
2022-08-17T13:48:14.151Z,2.63
2022-08-17T13:50:56.530Z,2.73
2022-08-17T13:53:33.989Z,2.50
2022-08-17T13:56:31.702Z,2.73
2022-08-17T13:59:05.061Z,2.57
2022-08-17T14:01:53.371Z,2.67
2022-08-17T14:04:28.016Z,2.80
2022-08-17T14:07:04.392Z,2.40
2022-08-17T14:09:53.331Z,2.43
2022-08-17T14:12:26.335Z,2.23
2022-08-17T14:14:55.092Z,2.13
2022-08-17T14:17:23.241Z,2.03
2022-08-17T14:19:51.283Z,2.00
2022-08-17T14:22:28.543Z,2.40
2022-08-17T14:24:58.104Z,2.30
2022-08-17T14:27:28.168Z,2.60
2022-08-17T14:29:56.472Z,2.10
2022-08-17T14:32:30.011Z,2.27
2022-08-17T14:34:57.899Z,2.40
2022-08-17T14:37:28.006Z,2.40
2022-08-17T14:40:00.529Z,2.23
2022-08-17T14:42:30.330Z,2.00
2022-08-17T14:44:58.834Z,2.37
2022-08-17T14:47:26.671Z,2.40
2022-08-17T14:49:53.744Z,1.83
2022-08-17T14:52:22.107Z,2.23
2022-08-17T14:54:51.422Z,2.20
2022-08-17T14:57:33.743Z,2.37
2022-08-17T15:00:02.388Z,2.33
2022-08-17T15:02:30.855Z,2.50
2022-08-17T15:05:06.042Z,2.10
2022-08-17T15:07:32.959Z,2.10
2022-08-17T15:10:01.380Z,1.97
2022-08-17T15:12:33.084Z,1.97
2022-08-17T15:15:05.195Z,2.00
2022-08-17T15:17:45.043Z,2.03
2022-08-17T15:20:28.043Z,2.30
2022-08-17T15:22:56.194Z,1.67
2022-08-17T15:25:24.677Z,1.97
2022-08-17T15:27:51.954Z,2.20
2022-08-17T15:30:19.728Z,2.20
2022-08-17T15:32:51.263Z,2.30
2022-08-17T15:35:27.727Z,1.70
2022-08-17T15:38:11.251Z,1.83
2022-08-17T15:40:42.824Z,1.80
2022-08-17T15:43:28.197Z,1.70
2022-08-17T15:46:01.523Z,2.30
2022-08-17T15:48:41.475Z,2.00
2022-08-17T15:51:30.803Z,2.10
2022-08-17T15:54:04.503Z,1.93
2022-08-17T15:56:46.522Z,1.83
2022-08-17T15:59:13.590Z,2.10
2022-08-17T16:03:15.421Z,2.17
2022-08-17T16:04:30.936Z,2.27
2022-08-17T16:06:59.291Z,2.40
2022-08-17T16:09:26.334Z,1.80
2022-08-17T16:11:56.274Z,1.70
2022-08-17T16:14:25.476Z,2.20
2022-08-17T16:17:00.799Z,1.90
2022-08-17T16:19:27.771Z,1.90
2022-08-17T16:21:54.627Z,1.80
2022-08-17T16:24:21.744Z,2.00
2022-08-17T16:26:48.595Z,1.90
2022-08-17T16:29:15.475Z,2.10
2022-08-17T16:31:43.281Z,2.00
2022-08-17T16:34:17.266Z,1.87
2022-08-17T16:36:53.589Z,1.50
2022-08-17T16:39:25.539Z,2.13
2022-08-17T16:41:52.409Z,1.77
2022-08-17T16:44:21.357Z,1.80
2022-08-17T16:46:49.104Z,2.60
2022-08-17T16:49:23.223Z,2.40
2022-08-17T16:52:03.656Z,2.17
2022-08-17T16:54:30.594Z,2.90
2022-08-17T16:56:57.473Z,2.23
2022-08-17T16:59:31.381Z,2.37
2022-08-17T17:02:11.293Z,2.53
2022-08-17T17:04:48.118Z,2.43
2022-08-17T17:07:43.610Z,2.47
2022-08-17T17:10:14.952Z,1.90
2022-08-17T17:13:02.570Z,2.13
2022-08-17T17:15:54.986Z,2.40
2022-08-17T17:18:31.810Z,2.20
2022-08-17T17:20:58.775Z,2.40
2022-08-17T17:23:41.829Z,2.47
2022-08-17T17:26:24.676Z,2.20
2022-08-17T17:29:18.339Z,2.40
2022-08-17T17:32:13.786Z,2.73
2022-08-17T17:34:50.512Z,2.80
2022-08-17T17:37:24.859Z,3.20
2022-08-17T17:39:55.468Z,2.97
2022-08-17T17:42:28.312Z,2.80
2022-08-17T17:45:07.075Z,2.60
2022-08-17T17:47:34.979Z,2.93
2022-08-17T17:50:04.528Z,2.60
2022-08-17T17:52:49.656Z,2.43
2022-08-17T17:55:25.868Z,2.80
2022-08-17T17:58:14.051Z,2.90
2022-08-17T18:01:06.724Z,3.40
2022-08-17T18:03:51.703Z,2.70
2022-08-17T18:06:28.718Z,2.97
2022-08-17T18:09:19.470Z,3.00
2022-08-17T18:11:58.215Z,2.90
2022-08-17T18:14:58.666Z,3.30
2022-08-17T18:17:26.528Z,3.00
2022-08-17T18:19:56.088Z,3.53
2022-08-17T18:22:23.834Z,2.97
2022-08-17T18:24:57.248Z,2.80
2022-08-17T18:27:36.799Z,3.00
2022-08-17T18:30:18.391Z,3.23
2022-08-17T18:32:49.623Z,3.50
2022-08-17T18:35:19.487Z,3.70
2022-08-17T18:38:13.673Z,3.33
2022-08-17T18:40:42.770Z,4.20
2022-08-17T18:43:24.499Z,3.47
2022-08-17T18:45:57.334Z,3.37
2022-08-17T18:48:36.646Z,3.40
2022-08-17T18:51:40.839Z,3.10
2022-08-17T18:54:24.212Z,3.30
2022-08-17T18:56:56.813Z,3.07
2022-08-17T18:59:29.273Z,3.50
2022-08-17T19:02:27.263Z,3.53
2022-08-17T19:05:07.921Z,4.30
2022-08-17T19:07:38.774Z,4.30
2022-08-17T19:10:13.737Z,3.60
2022-08-17T19:13:00.151Z,4.03
2022-08-17T19:15:35.827Z,4.20
2022-08-17T19:18:31.797Z,4.10
2022-08-17T19:21:30.795Z,3.90
2022-08-17T19:24:04.524Z,3.80
2022-08-17T19:27:27.327Z,3.30
2022-08-17T19:30:10.291Z,3.83
2022-08-17T19:32:37.999Z,3.37
2022-08-17T19:35:07.686Z,3.37
2022-08-17T19:37:49.971Z,3.47
2022-08-17T19:40:53.971Z,3.73
2022-08-17T19:43:55.150Z,3.63
2022-08-17T19:46:50.089Z,3.67
2022-08-17T19:49:23.492Z,3.20
2022-08-17T19:52:52.814Z,3.50
2022-08-17T19:55:30.519Z,3.50
2022-08-17T19:58:06.482Z,3.20
2022-08-17T20:00:42.000Z,3.10
2022-08-17T20:03:16.817Z,4.00
2022-08-17T20:06:11.518Z,3.47
2022-08-17T20:08:42.479Z,3.50
2022-08-17T20:11:27.990Z,3.10
2022-08-17T20:14:06.883Z,3.33
2022-08-17T20:16:34.828Z,3.47
2022-08-17T20:19:08.555Z,3.10
2022-08-17T20:21:40.362Z,3.70
2022-08-17T20:24:35.091Z,4.27
2022-08-17T20:27:18.925Z,3.23
2022-08-17T20:30:10.759Z,3.83
2022-08-17T20:32:52.277Z,3.43
2022-08-17T20:35:33.831Z,3.70
2022-08-17T20:38:41.116Z,3.83
2022-08-17T20:41:17.212Z,3.40
2022-08-17T20:43:51.110Z,3.93
2022-08-17T20:46:26.979Z,3.60
2022-08-17T20:49:08.780Z,3.23
2022-08-17T20:52:00.861Z,3.80
2022-08-17T20:54:46.571Z,4.27
2022-08-17T20:57:32.129Z,3.80
2022-08-17T21:00:16.563Z,4.10
2022-08-17T21:02:49.801Z,3.83
2022-08-17T21:05:59.961Z,3.90
2022-08-17T21:08:45.825Z,3.97
2022-08-17T21:12:02.499Z,4.07
2022-08-17T21:14:33.673Z,3.93
2022-08-17T21:17:35.113Z,3.83
2022-08-17T21:20:36.476Z,4.03
2022-08-17T21:23:12.571Z,3.70
2022-08-17T21:26:02.454Z,4.30
2022-08-17T21:29:01.102Z,4.23
2022-08-17T21:31:36.857Z,3.70
2022-08-17T21:34:16.025Z,3.70
2022-08-17T21:36:44.472Z,3.27
2022-08-17T21:39:23.295Z,4.30
2022-08-17T21:41:57.330Z,3.80
2022-08-17T21:44:36.663Z,3.90
2022-08-17T21:47:25.244Z,4.03
2022-08-17T21:49:53.568Z,3.57
2022-08-17T21:52:23.640Z,3.70
2022-08-17T21:54:54.532Z,3.50
2022-08-17T21:57:27.602Z,3.80
2022-08-17T21:59:58.597Z,4.60
2022-08-17T22:02:35.400Z,4.20
2022-08-17T22:05:10.256Z,3.70
2022-08-17T22:07:44.205Z,3.77
2022-08-17T22:10:31.475Z,4.53
2022-08-17T22:13:17.001Z,3.83
2022-08-17T22:16:15.400Z,3.80
2022-08-17T22:18:57.750Z,3.77
2022-08-17T22:21:25.139Z,4.33
2022-08-17T22:24:05.216Z,4.03
2022-08-17T22:27:02.184Z,4.20
2022-08-17T22:29:44.399Z,4.00
2022-08-17T22:32:29.292Z,3.83
2022-08-17T22:35:19.615Z,4.40
2022-08-17T22:37:46.973Z,4.67
2022-08-17T22:40:25.666Z,4.40
2022-08-17T22:42:53.560Z,4.63
2022-08-17T22:45:20.487Z,4.80
2022-08-17T22:47:48.945Z,4.20
2022-08-17T22:50:29.209Z,4.53
2022-08-17T22:53:32.713Z,4.07
2022-08-17T22:56:18.561Z,4.83
2022-08-17T22:59:13.569Z,3.73
2022-08-17T23:01:41.732Z,4.20
2022-08-17T23:04:29.395Z,4.50
2022-08-17T23:06:56.668Z,4.47
2022-08-17T23:09:23.663Z,3.90
2022-08-17T23:11:57.364Z,4.00
2022-08-17T23:14:31.350Z,4.30
2022-08-17T23:16:59.378Z,4.37
2022-08-17T23:19:27.403Z,4.03
2022-08-17T23:21:59.028Z,4.53
2022-08-17T23:24:28.345Z,4.80
2022-08-17T23:26:57.445Z,4.50
2022-08-17T23:29:29.401Z,4.60
2022-08-17T23:31:59.818Z,4.40
2022-08-17T23:34:28.134Z,5.37
2022-08-17T23:36:55.578Z,4.37
2022-08-17T23:39:24.623Z,4.37
2022-08-17T23:41:55.179Z,4.37
2022-08-17T23:44:23.545Z,4.50
2022-08-17T23:46:54.096Z,3.97
2022-08-17T23:49:21.094Z,4.00
2022-08-17T23:51:48.936Z,4.80
2022-08-17T23:54:35.107Z,5.20
2022-08-17T23:57:04.697Z,5.80
2022-08-17T23:59:33.912Z,4.70
